createdAt,value
2023-09-24T00:00:14.662Z,102177.00
2023-09-24T00:02:41.598Z,102172.63
2023-09-24T00:05:12.969Z,102168.22
2023-09-24T00:07:39.702Z,102171.03
2023-09-24T00:10:09.752Z,102161.81
2023-09-24T00:12:36.846Z,102161.81
2023-09-24T00:15:03.999Z,102166.66
2023-09-24T00:17:33.705Z,102161.06
2023-09-24T00:20:00.534Z,102154.66
2023-09-24T00:22:32.482Z,102155.44
2023-09-24T00:24:59.725Z,102161.06
2023-09-24T00:27:28.522Z,102144.63
2023-09-24T00:29:55.134Z,102156.66
2023-09-24T00:32:21.849Z,102174.69
2023-09-24T00:34:48.490Z,102173.91
2023-09-24T00:37:15.120Z,102168.31
2023-09-24T00:39:41.734Z,102180.72
2023-09-24T00:42:10.748Z,102177.16
2023-09-24T00:44:39.858Z,102182.75
2023-09-24T00:47:11.055Z,102182.75
2023-09-24T00:49:37.767Z,102189.56
2023-09-24T00:52:04.719Z,102182.38
2023-09-24T00:54:32.407Z,102185.97
2023-09-24T00:57:02.297Z,102188.41
2023-09-24T00:59:32.164Z,102186.41
2023-09-24T01:01:59.740Z,102176.41
2023-09-24T01:04:29.090Z,102177.19
2023-09-24T01:06:59.059Z,102174.38
2023-09-24T01:09:30.590Z,102178.78
2023-09-24T01:12:04.432Z,102173.19
2023-09-24T01:14:31.174Z,102177.56
2023-09-24T01:17:01.309Z,102178.78
2023-09-24T01:19:29.140Z,102170.38
2023-09-24T01:22:01.682Z,102170.81
2023-09-24T01:24:32.195Z,102166.41
2023-09-24T01:27:03.806Z,102163.25
2023-09-24T01:29:30.552Z,102164.50
2023-09-24T01:32:01.983Z,102164.13
2023-09-24T01:34:28.781Z,102164.13
2023-09-24T01:36:55.484Z,102166.56
2023-09-24T01:39:32.470Z,102156.56
2023-09-24T01:41:59.258Z,102150.97
2023-09-24T01:44:29.410Z,102151.75
2023-09-24T01:46:57.005Z,102155.38
2023-09-24T01:49:23.671Z,102150.97
2023-09-24T01:51:50.445Z,102148.59
2023-09-24T01:54:21.021Z,102135.03
2023-09-24T01:56:55.521Z,102129.41
2023-09-24T01:59:25.247Z,102135.03
2023-09-24T02:01:53.562Z,102127.81
2023-09-24T02:04:20.187Z,102116.63
2023-09-24T02:06:49.765Z,102129.84
2023-09-24T02:09:17.690Z,102138.25
2023-09-24T02:11:47.231Z,102136.66
2023-09-24T02:14:13.851Z,102126.25
2023-09-24T02:16:44.242Z,102125.47
2023-09-24T02:19:15.582Z,102125.91
2023-09-24T02:21:46.895Z,102121.06
2023-09-24T02:24:15.840Z,102122.75
2023-09-24T02:26:45.930Z,102119.94
2023-09-24T02:29:20.179Z,102121.16
2023-09-24T02:31:46.979Z,102121.94
2023-09-24T02:34:13.649Z,102117.53
2023-09-24T02:36:42.521Z,102111.16
2023-09-24T02:39:09.163Z,102107.13
2023-09-24T02:41:38.161Z,102103.97
2023-09-24T02:44:05.140Z,102108.38
2023-09-24T02:46:31.802Z,102106.78
2023-09-24T02:48:58.447Z,102109.13
2023-09-24T02:51:25.060Z,102117.53
2023-09-24T02:53:54.015Z,102124.38
2023-09-24T02:56:20.690Z,102127.97
2023-09-24T02:58:47.336Z,102125.94
2023-09-24T03:01:17.423Z,102115.53
2023-09-24T03:03:44.213Z,102117.91
2023-09-24T03:06:11.020Z,102112.31
2023-09-24T03:08:37.751Z,102105.50
2023-09-24T03:11:15.426Z,102109.09
2023-09-24T03:13:42.732Z,102113.91
2023-09-24T03:16:10.207Z,102109.09
2023-09-24T03:18:37.053Z,102106.28
2023-09-24T03:21:07.601Z,102103.50
2023-09-24T03:23:37.870Z,102100.69
2023-09-24T03:26:07.681Z,102101.44
2023-09-24T03:28:34.283Z,102105.06
2023-09-24T03:31:01.032Z,102107.06
2023-09-24T03:33:29.372Z,102101.44
2023-09-24T03:35:58.376Z,102104.63
2023-09-24T03:38:25.079Z,102095.44
2023-09-24T03:40:55.240Z,102091.41
2023-09-24T03:43:23.981Z,102086.25
2023-09-24T03:45:50.633Z,102089.84
2023-09-24T03:48:19.638Z,102083.00
2023-09-24T03:50:48.561Z,102081.44
2023-09-24T03:53:16.790Z,102081.44
2023-09-24T03:55:49.251Z,102073.03
2023-09-24T03:58:19.138Z,102069.78
2023-09-24T04:00:45.955Z,102064.63
2023-09-24T04:03:15.112Z,102073.03
2023-09-24T04:05:44.170Z,102080.19
2023-09-24T04:08:13.060Z,102075.84
2023-09-24T04:10:42.590Z,102075.84
2023-09-24T04:13:09.341Z,102075.84
2023-09-24T04:15:35.949Z,102074.59
2023-09-24T04:18:02.982Z,102069.44
2023-09-24T04:20:32.713Z,102071.44
2023-09-24T04:22:59.377Z,102073.03
2023-09-24T04:25:28.035Z,102077.41
2023-09-24T04:27:57.508Z,102078.63
2023-09-24T04:30:25.699Z,102089.84
2023-09-24T04:33:03.752Z,102089.03
2023-09-24T04:35:30.510Z,102081.44
2023-09-24T04:37:57.156Z,102081.44
2023-09-24T04:40:24.411Z,102087.03
2023-09-24T04:42:52.421Z,102079.84
2023-09-24T04:45:20.161Z,102081.44
2023-09-24T04:47:50.139Z,102084.25
2023-09-24T04:50:17.405Z,102091.03
2023-09-24T04:52:46.834Z,102085.44
2023-09-24T04:55:16.089Z,102088.25
2023-09-24T04:57:45.762Z,102096.66
2023-09-24T05:00:14.490Z,102089.03
2023-09-24T05:02:41.254Z,102085.44
2023-09-24T05:05:08.487Z,102083.00
2023-09-24T05:07:35.249Z,102092.66
2023-09-24T05:10:01.868Z,102089.41
2023-09-24T05:12:33.236Z,102089.41
2023-09-24T05:14:59.917Z,102086.59
2023-09-24T05:17:26.661Z,102085.81
2023-09-24T05:19:53.370Z,102089.84
2023-09-24T05:22:20.100Z,102085.81
2023-09-24T05:24:48.946Z,102094.22
2023-09-24T05:27:20.616Z,102092.19
2023-09-24T05:29:48.119Z,102087.81
2023-09-24T05:32:17.004Z,102085.81
2023-09-24T05:34:45.878Z,102095.00
2023-09-24T05:37:12.529Z,102093.00
2023-09-24T05:39:39.159Z,102099.81
2023-09-24T05:42:06.301Z,102095.81
2023-09-24T05:44:35.513Z,102087.41
2023-09-24T05:47:08.130Z,102093.78
2023-09-24T05:49:37.052Z,102090.19
2023-09-24T05:52:06.061Z,102094.56
2023-09-24T05:54:34.957Z,102088.53
2023-09-24T05:57:02.991Z,102086.16
2023-09-24T05:59:29.734Z,102093.78
2023-09-24T06:01:56.434Z,102105.34
2023-09-24T06:04:23.364Z,102098.97
2023-09-24T06:06:57.402Z,102106.94
2023-09-24T06:09:29.511Z,102104.94
2023-09-24T06:11:58.628Z,102106.13
2023-09-24T06:14:25.360Z,102102.13
2023-09-24T06:16:52.059Z,102098.53
2023-09-24T06:19:18.805Z,102091.28
2023-09-24T06:21:45.455Z,102107.66
2023-09-24T06:24:14.728Z,102102.84
2023-09-24T06:26:42.065Z,102102.84
2023-09-24T06:29:12.170Z,102108.81
2023-09-24T06:31:39.877Z,102106.72
2023-09-24T06:34:07.182Z,102104.28
2023-09-24T06:36:39.248Z,102108.28
2023-09-24T06:39:09.899Z,102111.09
2023-09-24T06:41:38.690Z,102105.00
2023-09-24T06:44:05.540Z,102109.72
2023-09-24T06:46:32.242Z,102099.75
2023-09-24T06:48:58.933Z,102106.94
2023-09-24T06:51:25.644Z,102105.72
2023-09-24T06:53:57.261Z,102108.53
2023-09-24T06:56:27.024Z,102108.88
2023-09-24T06:58:53.871Z,102116.03
2023-09-24T07:01:23.487Z,102125.25
2023-09-24T07:03:50.707Z,102110.81
2023-09-24T07:06:18.769Z,102115.22
2023-09-24T07:08:47.714Z,102120.84
2023-09-24T07:11:29.130Z,102126.06
2023-09-24T07:13:56.587Z,102120.03
2023-09-24T07:16:28.778Z,102118.81
2023-09-24T07:18:56.125Z,102115.16
2023-09-24T07:21:34.530Z,102119.97
2023-09-24T07:24:05.610Z,102112.78
2023-09-24T07:26:32.962Z,102118.81
2023-09-24T07:29:01.375Z,102106.03
2023-09-24T07:31:30.539Z,102096.78
2023-09-24T07:33:59.618Z,102104.00
2023-09-24T07:38:59.151Z,102099.97
2023-09-24T07:41:25.817Z,102097.63
2023-09-24T07:43:52.516Z,102112.81
2023-09-24T07:46:20.794Z,102110.38
2023-09-24T07:48:49.113Z,102111.19
2023-09-24T07:51:19.586Z,102109.47
2023-09-24T07:53:47.913Z,102107.38
2023-09-24T07:56:17.561Z,102104.84
2023-09-24T07:58:44.301Z,102123.63
2023-09-24T08:01:20.186Z,102117.56
2023-09-24T08:03:50.489Z,102124.75
2023-09-24T08:06:19.692Z,102126.34
2023-09-24T08:08:53.190Z,102117.84
2023-09-24T08:11:24.830Z,102123.81
2023-09-24T08:13:54.215Z,102127.31
2023-09-24T08:16:26.505Z,102124.88
2023-09-24T08:18:53.321Z,102123.66
2023-09-24T08:21:20.693Z,102125.22
2023-09-24T08:23:48.167Z,102127.63
2023-09-24T08:26:17.593Z,102134.69
2023-09-24T08:28:44.801Z,102132.97
2023-09-24T08:31:12.273Z,102134.38
2023-09-24T08:33:39.226Z,102129.84
2023-09-24T08:36:10.411Z,102133.34
2023-09-24T08:38:39.642Z,102142.91
2023-09-24T08:41:13.368Z,102133.28
2023-09-24T08:43:45.881Z,102144.50
2023-09-24T08:46:15.225Z,102144.50
2023-09-24T08:48:42.391Z,102153.69
2023-09-24T08:51:10.940Z,102145.47
2023-09-24T08:53:41.952Z,102150.47
2023-09-24T08:56:12.131Z,102150.34
2023-09-24T08:58:40.110Z,102150.25
2023-09-24T09:01:10.853Z,102159.81
2023-09-24T09:03:38.266Z,102161.31
2023-09-24T09:06:05.272Z,102156.47
2023-09-24T09:08:58.175Z,102156.03
2023-09-24T09:11:40.285Z,102154.34
2023-09-24T09:14:07.491Z,102159.91
2023-09-24T09:16:35.076Z,102155.06
2023-09-24T09:19:02.999Z,102147.88
2023-09-24T09:21:31.006Z,102148.22
2023-09-24T09:24:02.757Z,102140.94
2023-09-24T09:26:34.774Z,102146.56
2023-09-24T09:29:05.316Z,102151.72
2023-09-24T09:31:32.134Z,102152.88
2023-09-24T09:34:07.931Z,102158.75
2023-09-24T09:36:35.928Z,102157.78
2023-09-24T09:39:04.350Z,102158.03
2023-09-24T09:41:34.506Z,102158.72
2023-09-24T09:44:08.747Z,102153.00
2023-09-24T09:46:36.603Z,102151.25
2023-09-24T09:49:08.982Z,102142.72
2023-09-24T09:51:53.735Z,102151.66
2023-09-24T09:54:22.716Z,102156.72
2023-09-24T09:56:50.283Z,102147.88
2023-09-24T09:59:17.892Z,102147.44
2023-09-24T10:01:44.750Z,102146.69
2023-09-24T10:04:15.110Z,102145.59
2023-09-24T10:06:42.233Z,102144.97
2023-09-24T10:09:27.988Z,102146.34
2023-09-24T10:12:00.122Z,102148.34
2023-09-24T10:14:34.018Z,102148.16
2023-09-24T10:17:26.686Z,102132.84
2023-09-24T10:20:07.889Z,102140.56
2023-09-24T10:22:41.867Z,102143.94
2023-09-24T10:25:33.612Z,102146.06
2023-09-24T10:28:10.240Z,102134.00
2023-09-24T10:31:06.846Z,102140.38
2023-09-24T10:33:52.429Z,102138.91
2023-09-24T10:36:27.478Z,102131.69
2023-09-24T10:39:14.009Z,102127.13
2023-09-24T10:42:09.955Z,102131.66
2023-09-24T10:44:37.349Z,102129.91
2023-09-24T10:47:29.130Z,102139.41
2023-09-24T10:50:13.955Z,102138.31
2023-09-24T10:52:56.717Z,102137.56
2023-09-24T10:55:32.268Z,102129.88
2023-09-24T10:58:03.936Z,102134.94
2023-09-24T11:00:32.576Z,102143.38
2023-09-24T11:03:09.641Z,102137.31
2023-09-24T11:05:42.436Z,102138.88
2023-09-24T11:08:10.764Z,102132.34
2023-09-24T11:10:38.201Z,102131.69
2023-09-24T11:13:08.601Z,102122.44
2023-09-24T11:15:38.188Z,102124.78
2023-09-24T11:18:06.455Z,102115.44
2023-09-24T11:20:35.996Z,102103.94
2023-09-24T11:23:10.071Z,102111.78
2023-09-24T11:25:37.415Z,102108.63
2023-09-24T11:28:07.400Z,102103.66
2023-09-24T11:30:52.210Z,102110.81
2023-09-24T11:33:49.743Z,102101.78
2023-09-24T11:36:21.882Z,102102.84
2023-09-24T11:38:49.046Z,102112.53
2023-09-24T11:41:15.980Z,102111.41
2023-09-24T11:43:46.071Z,102114.69
2023-09-24T11:46:23.579Z,102127.53
2023-09-24T11:48:56.279Z,102118.41
2023-09-24T11:51:23.594Z,102120.06
2023-09-24T11:53:52.852Z,102117.69
2023-09-24T11:56:19.773Z,102109.75
2023-09-24T11:58:46.855Z,102102.09
2023-09-24T12:01:15.183Z,102110.41
2023-09-24T12:03:44.039Z,102114.84
2023-09-24T12:10:22.834Z,102109.38
2023-09-24T12:12:51.165Z,102109.59
2023-09-24T12:15:25.132Z,102091.63
2023-09-24T12:17:56.408Z,102101.06
2023-09-24T12:20:23.986Z,102106.97
2023-09-24T12:22:50.909Z,102102.31
2023-09-24T12:25:17.537Z,102098.69
2023-09-24T12:27:49.065Z,102084.25
2023-09-24T12:30:15.827Z,102087.91
2023-09-24T12:32:45.336Z,102084.72
2023-09-24T12:35:14.304Z,102086.28
2023-09-24T12:37:42.120Z,102081.91
2023-09-24T12:40:15.034Z,102083.59
2023-09-24T12:42:43.857Z,102078.75
2023-09-24T12:45:14.395Z,102083.47
2023-09-24T12:47:44.145Z,102092.50
2023-09-24T12:50:12.806Z,102076.50
2023-09-24T12:52:48.505Z,102074.13
2023-09-24T12:55:18.266Z,102063.19
2023-09-24T12:57:46.505Z,102080.91
2023-09-24T13:00:17.991Z,102082.00
2023-09-24T13:02:47.369Z,102067.91
2023-09-24T13:05:16.924Z,102070.47
2023-09-24T13:07:47.789Z,102073.78
2023-09-24T13:10:17.741Z,102072.72
2023-09-24T13:12:45.836Z,102068.78
2023-09-24T13:15:17.572Z,102053.91
2023-09-24T13:17:44.393Z,102050.88
2023-09-24T13:20:11.984Z,102055.31
2023-09-24T13:22:39.850Z,102047.47
2023-09-24T13:25:07.116Z,102052.19
2023-09-24T13:27:34.854Z,102045.88
2023-09-24T13:30:04.167Z,102040.53
2023-09-24T13:32:32.881Z,102038.53
2023-09-24T13:35:05.429Z,102039.75
2023-09-24T13:37:34.931Z,102040.53
2023-09-24T13:40:01.750Z,102039.28
2023-09-24T13:42:34.391Z,102036.03
2023-09-24T13:45:01.124Z,102029.66
2023-09-24T13:47:27.937Z,102033.94
2023-09-24T13:49:54.762Z,102026.28
2023-09-24T13:52:23.876Z,102021.59
2023-09-24T13:54:50.545Z,102033.97
2023-09-24T13:57:17.351Z,102014.66
2023-09-24T13:59:44.216Z,102020.78
2023-09-24T14:02:11.120Z,102017.16
2023-09-24T14:04:40.160Z,102014.34
2023-09-24T14:07:06.977Z,102017.16
2023-09-24T14:09:52.319Z,102031.63
2023-09-24T14:12:23.288Z,102008.22
2023-09-24T14:14:55.978Z,102006.50
2023-09-24T14:17:22.925Z,101999.81
2023-09-24T14:19:49.819Z,102000.13
2023-09-24T14:22:16.651Z,101997.44
2023-09-24T14:24:43.347Z,101996.84
2023-09-24T14:27:12.498Z,101999.03
2023-09-24T14:29:39.311Z,102006.88
2023-09-24T14:32:06.116Z,101997.13
2023-09-24T14:34:33.202Z,101991.00
2023-09-24T14:36:59.939Z,101985.34
2023-09-24T14:39:26.732Z,101985.34
2023-09-24T14:41:53.459Z,101993.66
2023-09-24T14:44:22.376Z,101995.84
2023-09-24T14:46:51.387Z,102002.91
2023-09-24T14:49:21.000Z,102001.22
2023-09-24T14:51:50.308Z,101997.47
2023-09-24T14:54:17.053Z,102000.59
2023-09-24T14:56:43.807Z,101988.81
2023-09-24T14:59:11.224Z,101993.69
2023-09-24T15:01:40.759Z,101984.72
2023-09-24T15:04:09.913Z,101991.47
2023-09-24T15:06:36.718Z,101982.03
2023-09-24T15:09:06.555Z,101986.75
2023-09-24T15:11:34.718Z,101979.50
2023-09-24T15:14:01.498Z,101976.38
2023-09-24T15:16:30.739Z,101966.81
2023-09-24T15:19:02.149Z,101970.56
2023-09-24T15:21:28.907Z,101971.50
2023-09-24T15:23:55.794Z,101971.97
2023-09-24T15:26:22.473Z,101967.25
2023-09-24T15:28:51.992Z,101968.19
2023-09-24T15:31:20.151Z,101959.06
2023-09-24T15:33:47.085Z,101962.38
2023-09-24T15:36:17.241Z,101960.34
2023-09-24T15:38:43.936Z,101962.38
2023-09-24T15:41:10.596Z,101965.19
2023-09-24T15:43:39.678Z,101963.66
2023-09-24T15:46:13.216Z,101961.25
2023-09-24T15:48:39.988Z,101949.66
2023-09-24T15:51:09.076Z,101957.81
2023-09-24T15:53:35.827Z,101952.31
2023-09-24T15:56:02.583Z,101945.56
2023-09-24T15:58:29.252Z,101941.34
2023-09-24T16:00:55.925Z,101937.72
2023-09-24T16:03:22.716Z,101928.00
2023-09-24T16:05:51.772Z,101922.66
2023-09-24T16:08:21.112Z,101921.44
2023-09-24T16:10:50.539Z,101918.59
2023-09-24T16:13:17.297Z,101922.97
2023-09-24T16:15:48.317Z,101925.38
2023-09-24T16:18:15.380Z,101930.53
2023-09-24T16:20:47.021Z,101911.25
2023-09-24T16:23:13.760Z,101913.28
2023-09-24T16:25:40.378Z,101914.50
2023-09-24T16:28:07.044Z,101918.13
2023-09-24T16:30:33.935Z,101921.75
2023-09-24T16:33:00.724Z,101917.22
2023-09-24T16:35:29.464Z,101914.53
2023-09-24T16:37:56.124Z,101913.31
2023-09-24T16:40:24.953Z,101910.47
2023-09-24T16:42:55.567Z,101903.25
2023-09-24T16:45:22.477Z,101907.19
2023-09-24T16:47:49.315Z,101903.88
2023-09-24T16:50:18.490Z,101913.31
2023-09-24T16:52:45.118Z,101907.50
2023-09-24T16:55:14.534Z,101906.88
2023-09-24T16:57:41.226Z,101908.28
2023-09-24T17:00:12.077Z,101912.50
2023-09-24T17:02:38.992Z,101906.72
2023-09-24T17:05:06.281Z,101906.88
2023-09-24T17:07:32.950Z,101908.59
2023-09-24T17:10:04.240Z,101913.91
2023-09-24T17:12:33.561Z,101909.97
2023-09-24T17:15:00.433Z,101905.09
2023-09-24T17:17:37.019Z,101913.56
2023-09-24T17:20:05.565Z,101906.66
2023-09-24T17:22:32.417Z,101908.94
2023-09-24T17:25:02.494Z,101899.53
2023-09-24T17:27:31.461Z,101916.13
2023-09-24T17:29:58.370Z,101904.22
2023-09-24T17:34:51.945Z,101900.22
2023-09-24T17:37:18.572Z,101894.09
2023-09-24T17:39:45.201Z,101898.31
2023-09-24T17:42:11.883Z,101903.28
2023-09-24T17:44:38.539Z,101902.22
2023-09-24T17:47:05.287Z,101893.09
2023-09-24T17:49:31.934Z,101891.19
2023-09-24T17:52:01.542Z,101898.22
2023-09-24T17:54:28.395Z,101899.94
2023-09-24T17:56:57.289Z,101902.44
2023-09-24T17:59:24.066Z,101897.72
2023-09-24T18:01:52.816Z,101893.03
2023-09-24T18:04:19.634Z,101891.44
2023-09-24T18:06:46.570Z,101875.91
2023-09-24T18:09:15.552Z,101877.59
2023-09-24T18:11:44.418Z,101878.97
2023-09-24T18:14:11.070Z,101881.47
2023-09-24T18:16:40.021Z,101883.97
2023-09-24T18:19:08.904Z,101873.63
2023-09-24T18:21:38.115Z,101879.72
2023-09-24T18:24:05.128Z,101881.75
2023-09-24T18:26:31.825Z,101866.22
2023-09-24T18:28:58.745Z,101876.72
2023-09-24T18:31:25.514Z,101867.13
2023-09-24T18:33:52.438Z,101864.94
2023-09-24T18:36:19.297Z,101861.47
2023-09-24T18:38:46.058Z,101853.81
2023-09-24T18:41:14.127Z,101861.78
2023-09-24T18:43:43.111Z,101851.31
2023-09-24T18:46:09.811Z,101852.53
2023-09-24T18:48:37.425Z,101854.56
2023-09-24T18:51:17.241Z,101853.81
2023-09-24T18:53:43.914Z,101855.03
2023-09-24T18:56:10.556Z,101847.06
2023-09-24T18:58:37.379Z,101849.22
2023-09-24T19:01:08.504Z,101858.25
2023-09-24T19:06:13.344Z,101853.34
2023-09-24T19:08:40.137Z,101853.94
2023-09-24T19:11:11.060Z,101850.47
2023-09-24T19:13:37.760Z,101846.53
2023-09-24T19:16:06.531Z,101841.81
2023-09-24T19:18:34.406Z,101841.50
2023-09-24T19:21:03.787Z,101851.63
2023-09-24T19:23:32.317Z,101847.38
2023-09-24T19:26:10.038Z,101844.22
2023-09-24T19:28:36.918Z,101839.03
2023-09-24T19:31:10.804Z,101849.16
2023-09-24T19:33:40.457Z,101842.44
2023-09-24T19:36:08.748Z,101844.13
2023-09-24T19:38:36.213Z,101840.19
2023-09-24T19:41:06.564Z,101836.59
2023-09-24T19:43:35.649Z,101832.69
2023-09-24T19:46:03.283Z,101838.75
2023-09-24T19:48:33.011Z,101837.19
2023-09-24T19:51:00.358Z,101834.84
2023-09-24T19:53:27.312Z,101828.41
2023-09-24T19:55:56.551Z,101838.88
2023-09-24T19:58:26.857Z,101832.91
2023-09-24T20:00:59.428Z,101836.66
2023-09-24T20:03:26.310Z,101840.25
2023-09-24T20:05:54.031Z,101840.69
2023-09-24T20:08:24.584Z,101842.72
2023-09-24T20:10:51.432Z,101834.75
2023-09-24T20:13:18.140Z,101832.41
2023-09-24T20:15:44.937Z,101832.06
2023-09-24T20:18:11.904Z,101837.69
2023-09-24T20:20:38.650Z,101836.56
2023-09-24T20:23:05.934Z,101838.59
2023-09-24T20:25:41.367Z,101839.84
2023-09-24T20:28:08.041Z,101833.09
2023-09-24T20:30:34.892Z,101846.34
2023-09-24T20:33:10.087Z,101837.16
2023-09-24T20:35:46.749Z,101831.97
2023-09-24T20:38:15.624Z,101836.50
2023-09-24T20:40:43.301Z,101832.88
2023-09-24T20:43:13.224Z,101825.69
2023-09-24T20:45:56.108Z,101826.13
2023-09-24T20:48:22.962Z,101820.50
2023-09-24T20:50:49.654Z,101825.38
2023-09-24T20:53:16.346Z,101828.63
2023-09-24T20:55:43.036Z,101841.13
2023-09-24T20:58:12.326Z,101839.53
2023-09-24T21:00:42.301Z,101828.75
2023-09-24T21:03:10.314Z,101830.75
2023-09-24T21:05:37.232Z,101827.19
2023-09-24T21:08:05.871Z,101829.22
2023-09-24T21:10:32.546Z,101831.69
2023-09-24T21:12:59.192Z,101822.47
2023-09-24T21:15:30.762Z,101833.72
2023-09-24T21:17:57.467Z,101832.91
2023-09-24T21:20:24.827Z,101828.53
2023-09-24T21:22:51.499Z,101841.81
2023-09-24T21:25:18.869Z,101831.03
2023-09-24T21:27:48.306Z,101822.59
2023-09-24T21:30:15.285Z,101814.47
2023-09-24T21:32:42.046Z,101815.16
2023-09-24T21:35:09.008Z,101817.03
2023-09-24T21:37:35.676Z,101817.38
2023-09-24T21:40:04.982Z,101817.69
2023-09-24T21:42:31.707Z,101812.41
2023-09-24T21:45:01.859Z,101814.00
2023-09-24T21:47:30.618Z,101812.41
2023-09-24T21:49:57.281Z,101807.13
2023-09-24T21:52:24.009Z,101811.50
2023-09-24T21:54:54.170Z,101801.81
2023-09-24T21:57:26.755Z,101796.19
2023-09-24T21:59:53.475Z,101797.00
2023-09-24T22:02:22.586Z,101796.19
2023-09-24T22:04:50.340Z,101803.41
2023-09-24T22:07:17.060Z,101794.97
2023-09-24T22:09:43.737Z,101794.16
2023-09-24T22:12:10.425Z,101795.72
2023-09-24T22:14:37.036Z,101804.31
2023-09-24T22:17:04.432Z,101801.03
2023-09-24T22:19:31.061Z,101813.53
2023-09-24T22:21:59.890Z,101806.00
2023-09-24T22:24:29.074Z,101798.47
2023-09-24T22:26:56.026Z,101797.34
2023-09-24T22:29:22.700Z,101801.41
2023-09-24T22:31:52.617Z,101799.84
2023-09-24T22:34:22.277Z,101796.25
2023-09-24T22:36:53.709Z,101796.69
2023-09-24T22:39:20.467Z,101795.13
2023-09-24T22:41:51.232Z,101795.13
2023-09-24T22:44:20.814Z,101790.72
2023-09-24T22:46:47.485Z,101793.22
2023-09-24T22:49:14.709Z,101793.66
2023-09-24T22:51:41.360Z,101793.34
2023-09-24T22:54:08.092Z,101796.63
2023-09-24T22:56:34.753Z,101809.88
2023-09-24T22:59:01.438Z,101805.94
2023-09-24T23:01:31.844Z,101808.75
2023-09-24T23:03:58.550Z,101810.00
2023-09-24T23:06:25.289Z,101811.22
2023-09-24T23:08:52.114Z,101816.09
2023-09-24T23:11:21.105Z,101812.16
2023-09-24T23:13:50.203Z,101818.22
2023-09-24T23:16:16.848Z,101821.47
2023-09-24T23:18:43.568Z,101811.47
2023-09-24T23:21:13.691Z,101801.47
2023-09-24T23:23:40.380Z,101805.53
2023-09-24T23:26:09.229Z,101813.63
2023-09-24T23:28:35.967Z,101813.63
2023-09-24T23:31:05.206Z,101798.44
2023-09-24T23:33:31.995Z,101804.06
2023-09-24T23:36:00.123Z,101801.72
2023-09-24T23:38:29.450Z,101792.50
2023-09-24T23:40:56.555Z,101783.22
2023-09-24T23:43:23.423Z,101789.31
2023-09-24T23:45:52.422Z,101790.09
2023-09-24T23:48:19.132Z,101787.75
2023-09-24T23:50:45.999Z,101786.97
2023-09-24T23:53:15.841Z,101779.75
2023-09-24T23:55:42.607Z,101781.00
2023-09-24T23:58:09.262Z,101789.44
